Time;durP1;ratioP1;P1;durP2;ratioP2;P2;SDS_P1;SDS_P2;PMS_P1;PMS_P2;Temp;Humidity;BMP_temperature;BMP_pressure;BME280_temperature;BME280_humidity;BME280_pressure;Samples;Min_cycle;Max_cycle;Signal;HPM_P1;HPM_P2
2023/07/07 00:01:12;;;;;;;1.47;0.90;;;16.50;98.20;;;;;;5016176;28;20466;-87
2023/07/07 00:03:38;;;;;;;1.50;1.00;;;16.50;98.20;;;;;;5017521;28;20551;-88
2023/07/07 00:06:07;;;;;;;1.50;1.00;;;16.50;98.20;;;;;;5013844;28;20484;-87
2023/07/07 00:08:33;;;;;;;1.50;1.00;;;16.50;98.20;;;;;;5017006;28;20892;-86
2023/07/07 00:11:00;;;;;;;1.50;1.00;;;16.40;98.20;;;;;;5013686;28;20475;-83
2023/07/07 00:13:27;;;;;;;1.43;1.00;;;16.40;98.20;;;;;;5011524;28;20456;-86
2023/07/07 00:15:59;;;;;;;1.50;1.00;;;16.30;98.20;;;;;;5007486;28;20559;-84
2023/07/07 00:18:27;;;;;;;1.50;1.00;;;16.30;98.20;;;;;;5009159;28;21013;-86
2023/07/07 00:20:56;;;;;;;1.50;1.00;;;16.30;98.20;;;;;;5005875;28;20969;-89
2023/07/07 00:23:25;;;;;;;1.50;1.00;;;16.30;98.20;;;;;;5009947;28;20556;-87
2023/07/07 00:26:00;;;;;;;1.77;1.50;;;16.30;98.20;;;;;;5005688;28;20464;-87
2023/07/07 00:28:27;;;;;;;1.47;1.00;;;16.30;98.20;;;;;;5010523;28;20899;-88
2023/07/07 00:30:53;;;;;;;1.50;1.00;;;16.20;98.20;;;;;;5000557;28;20699;-86
2023/07/07 00:33:20;;;;;;;1.50;1.00;;;16.20;98.20;;;;;;5005551;28;20479;-85
2023/07/07 00:35:47;;;;;;;1.40;1.00;;;16.20;98.20;;;;;;5006222;28;20472;-87
2023/07/07 00:38:15;;;;;;;1.50;1.00;;;16.10;98.20;;;;;;5008592;28;20483;-86
2023/07/07 00:40:43;;;;;;;1.43;1.00;;;16.10;98.20;;;;;;5014546;28;20536;-90
2023/07/07 00:43:12;;;;;;;1.50;1.00;;;16.10;98.20;;;;;;5008894;28;20465;-87
2023/07/07 00:45:39;;;;;;;1.50;1.00;;;16.10;98.20;;;;;;5007334;28;21121;-88
2023/07/07 00:48:11;;;;;;;1.50;1.00;;;16.10;98.20;;;;;;5010820;28;20484;-87
2023/07/07 00:50:42;;;;;;;1.50;1.07;;;16.00;98.20;;;;;;5004969;28;20507;-87
2023/07/07 00:53:08;;;;;;;1.47;1.00;;;16.00;98.20;;;;;;5006045;28;20562;-88
2023/07/07 00:55:42;;;;;;;1.50;1.00;;;16.00;98.20;;;;;;5002605;28;20454;-86
2023/07/07 00:58:16;;;;;;;1.50;1.00;;;16.00;98.20;;;;;;5005345;28;20563;-85
2023/07/07 01:00:46;;;;;;;1.50;1.00;;;16.00;98.20;;;;;;5010405;28;20488;-88
2023/07/07 01:03:22;;;;;;;1.40;1.00;;;15.90;98.20;;;;;;5009408;28;20599;-86
2023/07/07 01:05:51;;;;;;;1.50;1.00;;;15.90;98.20;;;;;;5004758;28;20456;-87
2023/07/07 01:08:18;;;;;;;1.50;1.00;;;15.90;98.20;;;;;;5011959;28;20487;-88
2023/07/07 01:10:46;;;;;;;1.50;1.00;;;15.80;98.20;;;;;;5007171;28;20755;-88
2023/07/07 01:13:15;;;;;;;1.50;1.00;;;15.80;98.20;;;;;;5003056;28;20489;-88
2023/07/07 01:16:02;;;;;;;1.47;1.00;;;15.80;98.20;;;;;;5010808;28;20460;-87
2023/07/07 01:18:38;;;;;;;1.50;1.10;;;15.70;98.20;;;;;;5003407;28;21450;-86
2023/07/07 01:21:12;;;;;;;1.50;1.00;;;15.70;98.20;;;;;;5009316;28;20495;-86
2023/07/07 01:24:18;;;;;;;1.50;1.00;;;15.70;98.20;;;;;;5014989;28;20456;-87
2023/07/07 01:26:58;;;;;;;1.50;1.00;;;15.60;98.20;;;;;;5008204;28;20468;-86
2023/07/07 01:29:49;;;;;;;1.50;1.00;;;15.60;98.20;;;;;;5008447;28;20479;-86
2023/07/07 01:32:21;;;;;;;1.50;1.10;;;15.60;98.20;;;;;;4979627;28;20445;-85
2023/07/07 01:34:48;;;;;;;1.47;1.00;;;15.60;98.20;;;;;;5013154;28;20487;-88
2023/07/07 01:37:15;;;;;;;1.50;1.10;;;15.50;98.20;;;;;;5013878;28;20951;-87
2023/07/07 01:39:44;;;;;;;1.47;1.00;;;15.50;98.20;;;;;;5007154;28;20692;-86
2023/07/07 01:42:16;;;;;;;1.50;1.00;;;15.50;98.20;;;;;;5011562;28;20452;-87
2023/07/07 01:44:51;;;;;;;1.50;1.00;;;15.50;98.20;;;;;;5010377;28;20457;-88
2023/07/07 01:47:24;;;;;;;1.43;0.90;;;15.50;98.20;;;;;;5011279;28;21024;-87
2023/07/07 01:49:56;;;;;;;1.47;1.00;;;15.50;98.20;;;;;;5014028;28;20923;-87
2023/07/07 01:52:27;;;;;;;1.47;1.00;;;15.40;98.20;;;;;;5016755;28;20448;-87
2023/07/07 01:54:58;;;;;;;1.50;1.00;;;15.40;98.20;;;;;;5011348;28;20456;-85
2023/07/07 01:57:28;;;;;;;1.50;1.00;;;15.40;98.20;;;;;;5009586;28;20834;-85
2023/07/07 01:59:56;;;;;;;1.50;1.00;;;15.30;98.20;;;;;;5010530;28;20471;-86
2023/07/07 02:02:24;;;;;;;1.50;1.00;;;15.30;98.20;;;;;;5007939;28;20536;-87
2023/07/07 02:04:51;;;;;;;1.50;1.00;;;15.30;98.20;;;;;;5010200;28;20463;-86
2023/07/07 02:07:18;;;;;;;1.47;0.90;;;15.20;98.20;;;;;;5010168;28;20544;-85
2023/07/07 02:09:45;;;;;;;1.50;1.03;;;15.20;98.20;;;;;;5011397;28;20507;-87
2023/07/07 02:12:12;;;;;;;1.50;1.00;;;15.20;98.20;;;;;;5011052;28;20587;-89
2023/07/07 02:14:38;;;;;;;1.50;1.00;;;15.20;98.20;;;;;;5010230;28;20464;-87
2023/07/07 02:17:06;;;;;;;1.47;1.00;;;15.10;98.20;;;;;;5011758;28;20462;-86
2023/07/07 02:19:34;;;;;;;1.50;1.03;;;15.10;98.20;;;;;;5012000;28;20480;-88
2023/07/07 02:22:01;;;;;;;1.50;1.00;;;15.10;98.20;;;;;;5015157;28;20547;-88
2023/07/07 02:24:28;;;;;;;1.47;1.00;;;15.10;98.20;;;;;;5011581;28;20943;-87
2023/07/07 02:26:54;;;;;;;1.43;0.90;;;15.10;98.20;;;;;;5010637;28;20468;-87
2023/07/07 02:29:21;;;;;;;1.50;1.00;;;15.00;98.20;;;;;;5011663;28;20507;-89
2023/07/07 02:31:48;;;;;;;1.50;1.00;;;15.00;98.20;;;;;;5009473;28;20540;-86
2023/07/07 02:34:15;;;;;;;1.50;1.00;;;15.00;98.20;;;;;;5006012;28;20535;-87
2023/07/07 02:36:43;;;;;;;1.50;0.90;;;14.90;98.20;;;;;;5011662;28;20475;-86
2023/07/07 02:39:10;;;;;;;1.47;1.00;;;14.90;98.20;;;;;;5016479;28;20482;-87
2023/07/07 02:41:36;;;;;;;1.50;0.93;;;14.90;98.20;;;;;;5014774;28;20451;-87
2023/07/07 02:44:03;;;;;;;1.50;1.00;;;14.90;98.20;;;;;;5010629;28;20555;-88
2023/07/07 02:46:30;;;;;;;1.50;1.10;;;14.90;98.20;;;;;;5009173;28;20462;-86
2023/07/07 02:48:57;;;;;;;1.50;1.00;;;14.80;98.20;;;;;;5013196;28;20901;-85
2023/07/07 02:51:24;;;;;;;1.50;1.00;;;14.80;98.20;;;;;;5012500;28;20476;-87
2023/07/07 02:53:52;;;;;;;1.50;1.10;;;14.80;98.20;;;;;;5009792;28;20471;-86
2023/07/07 02:56:19;;;;;;;1.47;1.00;;;14.80;98.20;;;;;;5005941;28;20471;-85
2023/07/07 02:58:46;;;;;;;1.50;0.90;;;14.70;98.20;;;;;;5011844;28;20567;-85
2023/07/07 03:01:15;;;;;;;1.50;1.10;;;14.70;98.20;;;;;;5009320;28;21037;-88
2023/07/07 03:03:43;;;;;;;1.50;1.10;;;14.70;98.20;;;;;;5011773;28;20922;-86
2023/07/07 03:06:15;;;;;;;1.50;1.10;;;14.70;98.20;;;;;;5012097;28;20467;-87
2023/07/07 03:08:42;;;;;;;1.47;1.00;;;14.70;98.20;;;;;;5009270;28;20481;-87
2023/07/07 03:11:12;;;;;;;1.50;1.00;;;14.70;98.20;;;;;;5009377;28;20480;-88
2023/07/07 03:13:40;;;;;;;1.43;1.00;;;14.60;98.20;;;;;;5009023;28;20462;-90
2023/07/07 03:16:08;;;;;;;1.50;1.10;;;14.60;98.20;;;;;;5011601;28;20526;-86
2023/07/07 03:18:35;;;;;;;1.47;1.00;;;14.60;98.20;;;;;;5010070;28;20484;-90
2023/07/07 03:21:02;;;;;;;1.47;1.00;;;14.60;98.20;;;;;;5007870;28;20444;-84
2023/07/07 03:23:29;;;;;;;1.50;1.00;;;14.50;98.20;;;;;;5004737;28;20466;-87
2023/07/07 03:25:56;;;;;;;1.50;1.10;;;14.50;98.20;;;;;;5010508;28;20471;-88
2023/07/07 03:28:25;;;;;;;1.47;1.00;;;14.50;98.20;;;;;;5011314;28;20481;-87
2023/07/07 03:30:52;;;;;;;1.50;1.10;;;14.50;98.20;;;;;;5020474;28;20484;-85
2023/07/07 03:33:19;;;;;;;1.50;1.10;;;14.50;98.20;;;;;;5010113;28;20499;-88
2023/07/07 03:35:46;;;;;;;1.50;1.00;;;14.50;98.20;;;;;;5010510;28;20506;-84
2023/07/07 03:38:14;;;;;;;1.43;1.00;;;14.50;98.20;;;;;;5020539;28;20553;-88
2023/07/07 03:40:48;;;;;;;1.50;1.00;;;14.50;98.20;;;;;;5027557;28;20502;-90
2023/07/07 03:43:18;;;;;;;1.50;1.10;;;14.50;98.20;;;;;;5019844;28;20459;-85
2023/07/07 03:45:47;;;;;;;1.50;1.10;;;14.50;98.20;;;;;;5024049;28;20467;-86
2023/07/07 03:48:16;;;;;;;1.50;1.10;;;14.50;98.20;;;;;;5017736;28;20515;-85
2023/07/07 03:50:43;;;;;;;1.50;1.03;;;14.50;98.20;;;;;;5020424;28;20490;-91
2023/07/07 03:53:09;;;;;;;1.50;1.00;;;14.50;98.20;;;;;;5017130;28;20458;-87
2023/07/07 03:55:36;;;;;;;1.47;1.00;;;14.60;98.20;;;;;;5022224;28;20472;-87
2023/07/07 03:58:03;;;;;;;1.50;1.10;;;14.50;98.20;;;;;;5027617;28;21114;-89
2023/07/07 04:00:30;;;;;;;1.50;1.10;;;14.60;98.20;;;;;;5015619;28;20508;-87
2023/07/07 04:02:58;;;;;;;1.47;1.00;;;14.60;98.20;;;;;;5027384;28;20520;-84
2023/07/07 04:05:25;;;;;;;1.47;1.00;;;14.60;98.20;;;;;;5026171;28;20542;-86
2023/07/07 04:07:52;;;;;;;1.50;1.00;;;14.60;98.20;;;;;;5009842;28;20490;-88
2023/07/07 04:10:18;;;;;;;1.50;1.00;;;14.60;98.20;;;;;;5025477;28;20550;-87
2023/07/07 04:12:45;;;;;;;1.47;1.00;;;14.60;98.20;;;;;;5024984;28;20505;-89
2023/07/07 04:15:12;;;;;;;1.50;1.00;;;14.60;98.20;;;;;;5026541;28;20467;-89
2023/07/07 04:17:39;;;;;;;1.50;1.10;;;14.60;98.20;;;;;;5022271;28;20488;-85
2023/07/07 04:20:08;;;;;;;1.43;0.90;;;14.70;98.20;;;;;;5024908;28;20463;-87
2023/07/07 04:22:35;;;;;;;1.50;1.00;;;14.70;98.20;;;;;;5013928;28;20846;-85
2023/07/07 04:25:13;;;;;;;1.47;1.00;;;14.70;98.20;;;;;;5012536;28;20467;-87
2023/07/07 04:27:39;;;;;;;1.43;1.00;;;14.70;98.20;;;;;;5014988;28;20464;-85
2023/07/07 04:30:08;;;;;;;1.47;1.00;;;14.80;98.20;;;;;;5019933;28;21286;-87
2023/07/07 04:32:35;;;;;;;1.50;1.00;;;14.80;98.20;;;;;;5018329;28;20483;-90
2023/07/07 04:35:03;;;;;;;1.50;1.00;;;14.80;98.20;;;;;;5026455;28;20460;-86
2023/07/07 04:37:32;;;;;;;1.47;1.00;;;14.80;98.20;;;;;;5021080;28;20463;-90
2023/07/07 04:39:59;;;;;;;1.47;0.97;;;14.80;98.20;;;;;;5029105;28;20558;-88
2023/07/07 04:42:26;;;;;;;1.47;1.00;;;14.90;98.20;;;;;;5027457;28;20455;-85
2023/07/07 04:44:53;;;;;;;1.50;1.00;;;14.90;98.20;;;;;;5016344;28;20449;-86
2023/07/07 04:47:19;;;;;;;1.50;1.00;;;15.00;98.20;;;;;;5028668;28;20490;-84
2023/07/07 04:49:47;;;;;;;1.50;1.00;;;15.00;98.20;;;;;;5019160;28;20506;-85
2023/07/07 04:52:17;;;;;;;1.50;0.90;;;15.20;98.20;;;;;;5024698;28;20487;-87
2023/07/07 04:54:49;;;;;;;1.47;0.90;;;15.30;98.20;;;;;;5024596;28;20479;-82
2023/07/07 04:57:16;;;;;;;1.50;1.00;;;15.50;98.20;;;;;;5018065;28;20460;-89
2023/07/07 04:59:42;;;;;;;1.50;1.00;;;15.60;98.20;;;;;;5019090;28;20536;-88
2023/07/07 05:02:09;;;;;;;1.43;0.90;;;15.80;98.20;;;;;;5010835;28;20465;-87
2023/07/07 05:04:36;;;;;;;1.50;1.07;;;16.00;98.20;;;;;;5011005;28;20472;-84
2023/07/07 05:07:03;;;;;;;1.50;0.90;;;16.20;98.20;;;;;;5011764;28;20602;-86
2023/07/07 05:09:30;;;;;;;1.50;1.00;;;16.30;98.20;;;;;;5021012;28;20554;-86
2023/07/07 05:12:01;;;;;;;1.50;0.90;;;16.50;98.20;;;;;;5024191;28;20487;-87
2023/07/07 05:14:43;;;;;;;1.50;1.00;;;16.60;98.20;;;;;;5023350;28;20474;-85
2023/07/07 05:17:38;;;;;;;1.50;1.00;;;16.80;98.20;;;;;;5014193;28;20498;-88
2023/07/07 05:20:19;;;;;;;1.50;1.00;;;17.00;98.20;;;;;;4925066;29;20480;-86
2023/07/07 05:22:59;;;;;;;1.50;1.00;;;17.20;98.20;;;;;;4919494;29;20925;-84
2023/07/07 05:25:26;;;;;;;1.50;1.00;;;17.40;98.20;;;;;;4925855;29;20508;-84
2023/07/07 05:27:55;;;;;;;1.50;0.90;;;17.50;98.20;;;;;;4919749;29;20644;-83
2023/07/07 05:30:22;;;;;;;1.60;1.20;;;17.60;98.20;;;;;;4982966;28;20471;-82
2023/07/07 05:32:49;;;;;;;1.47;1.00;;;17.80;98.20;;;;;;5020764;28;20499;-81
2023/07/07 05:35:16;;;;;;;1.50;0.93;;;17.80;98.20;;;;;;5015686;28;20478;-78
2023/07/07 05:37:43;;;;;;;1.50;0.90;;;17.90;98.20;;;;;;4990639;28;20472;-79
2023/07/07 05:40:11;;;;;;;1.50;0.90;;;18.10;96.80;;;;;;5003968;28;20468;-80
2023/07/07 05:42:38;;;;;;;1.50;1.00;;;18.20;96.70;;;;;;5006974;28;20558;-79
2023/07/07 05:45:10;;;;;;;1.50;0.90;;;18.30;96.50;;;;;;5008437;28;20565;-78
2023/07/07 05:47:37;;;;;;;1.50;1.00;;;18.40;95.70;;;;;;5006596;28;21127;-79
2023/07/07 05:50:05;;;;;;;1.50;1.00;;;18.40;95.90;;;;;;5007424;28;20539;-79
2023/07/07 05:52:32;;;;;;;1.47;0.90;;;18.60;96.10;;;;;;5002698;28;20586;-80
2023/07/07 05:54:59;;;;;;;1.47;0.90;;;18.70;94.80;;;;;;5011413;28;20473;-80
2023/07/07 05:57:27;;;;;;;1.50;0.90;;;18.80;94.80;;;;;;5003495;28;20460;-78
2023/07/07 05:59:53;;;;;;;1.50;1.00;;;18.80;94.30;;;;;;5001069;28;20539;-79
2023/07/07 06:02:22;;;;;;;1.47;0.90;;;18.90;94.10;;;;;;5003918;28;21015;-78
2023/07/07 06:04:51;;;;;;;1.50;1.00;;;18.90;93.70;;;;;;5005154;28;20471;-79
2023/07/07 06:07:18;;;;;;;1.47;0.90;;;19.00;93.80;;;;;;5006753;28;20471;-82
2023/07/07 06:09:57;;;;;;;1.50;0.90;;;19.20;93.40;;;;;;5003837;28;20559;-82
2023/07/07 06:12:24;;;;;;;1.47;0.90;;;19.40;92.80;;;;;;5002829;28;20487;-80
2023/07/07 06:14:56;;;;;;;1.50;1.00;;;19.50;89.90;;;;;;5009572;28;20480;-82
2023/07/07 06:17:25;;;;;;;1.50;1.00;;;19.70;90.30;;;;;;5007629;28;20579;-78
2023/07/07 06:19:52;;;;;;;1.50;0.90;;;20.00;92.50;;;;;;5009172;28;20510;-78
2023/07/07 06:22:19;;;;;;;1.50;0.93;;;20.30;89.50;;;;;;5009881;28;20543;-79
2023/07/07 06:24:46;;;;;;;1.50;0.90;;;20.50;87.20;;;;;;5005137;28;20518;-79
2023/07/07 06:27:13;;;;;;;1.50;0.90;;;20.60;88.10;;;;;;5004757;28;20483;-80
2023/07/07 06:29:40;;;;;;;1.43;0.90;;;20.70;87.20;;;;;;5008724;28;20504;-80
2023/07/07 06:32:16;;;;;;;1.47;0.90;;;20.80;85.20;;;;;;5016049;28;20871;-83
2023/07/07 06:34:44;;;;;;;1.50;0.90;;;20.80;84.40;;;;;;5013139;28;20569;-81
2023/07/07 06:37:11;;;;;;;1.47;0.90;;;20.80;85.80;;;;;;5012217;28;20897;-81
2023/07/07 06:39:38;;;;;;;1.50;0.90;;;21.00;86.10;;;;;;5017633;28;21412;-83
2023/07/07 06:42:06;;;;;;;1.50;1.00;;;21.00;85.20;;;;;;5010840;28;20463;-82
2023/07/07 06:44:37;;;;;;;1.50;0.90;;;21.10;83.90;;;;;;5019020;28;20545;-84
2023/07/07 06:47:05;;;;;;;1.43;0.90;;;21.30;85.60;;;;;;5011643;28;20557;-82
2023/07/07 06:49:32;;;;;;;1.50;0.90;;;21.50;85.40;;;;;;5012686;28;20534;-81
2023/07/07 06:52:34;;;;;;;1.50;0.90;;;21.80;83.50;;;;;;5018740;28;20567;-83
2023/07/07 06:55:00;;;;;;;1.50;0.90;;;21.90;83.70;;;;;;5013886;28;20486;-80
2023/07/07 06:57:34;;;;;;;1.50;0.90;;;22.10;84.30;;;;;;5020438;28;20954;-81
2023/07/07 07:00:03;;;;;;;1.50;0.90;;;22.30;82.00;;;;;;5020065;28;20467;-84
2023/07/07 07:09:17;;;;;;;1.50;0.90;;;23.20;80.20;;;;;;5016468;28;20495;-83
2023/07/07 07:12:10;;;;;;;1.47;0.80;;;23.30;80.40;;;;;;5006874;28;20475;-82
2023/07/07 07:14:56;;;;;;;1.50;0.90;;;23.40;79.70;;;;;;5013216;28;20463;-79
2023/07/07 07:17:28;;;;;;;2.47;2.10;;;23.60;79.90;;;;;;5008758;28;20463;-83
2023/07/07 07:22:42;;;;;;;1.47;0.83;;;23.80;79.20;;;;;;5007883;28;20460;-83
2023/07/07 07:25:23;;;;;;;1.47;0.80;;;23.80;78.30;;;;;;5006228;28;20464;-84
2023/07/07 07:27:50;;;;;;;1.50;0.90;;;24.00;78.70;;;;;;5017163;28;20551;-82
2023/07/07 07:30:17;;;;;;;1.50;0.90;;;24.20;78.00;;;;;;5019498;28;20486;-82
2023/07/07 07:32:44;;;;;;;1.50;0.90;;;24.30;77.50;;;;;;5011983;28;20575;-83
2023/07/07 07:35:12;;;;;;;1.47;0.90;;;24.40;79.00;;;;;;5020955;28;20469;-83
2023/07/07 07:37:41;;;;;;;1.47;0.90;;;24.60;78.60;;;;;;5011333;28;20459;-81
2023/07/07 07:40:09;;;;;;;1.47;0.90;;;24.80;76.60;;;;;;5020214;28;20517;-81
2023/07/07 07:42:38;;;;;;;1.50;0.87;;;25.00;76.10;;;;;;5017984;28;20833;-83
2023/07/07 07:45:06;;;;;;;1.50;0.90;;;25.20;75.90;;;;;;5019211;28;20463;-84
2023/07/07 07:47:34;;;;;;;1.50;0.90;;;25.40;75.30;;;;;;5007471;28;20629;-80
2023/07/07 07:50:02;;;;;;;1.47;0.80;;;25.60;75.70;;;;;;5019383;28;20844;-82
2023/07/07 07:52:29;;;;;;;1.50;0.90;;;25.70;74.00;;;;;;5018765;28;20544;-82
2023/07/07 07:54:56;;;;;;;1.43;0.80;;;25.90;73.60;;;;;;5018193;28;20461;-84
2023/07/07 07:57:23;;;;;;;1.47;0.80;;;26.00;73.90;;;;;;5014642;28;20501;-82
2023/07/07 07:59:51;;;;;;;1.47;0.80;;;26.30;71.20;;;;;;5015394;28;20796;-83
2023/07/07 08:02:18;;;;;;;1.50;0.80;;;26.50;71.90;;;;;;4992580;28;20471;-82
2023/07/07 08:04:46;;;;;;;1.40;0.80;;;26.70;71.60;;;;;;4993975;28;20471;-83
2023/07/07 08:07:12;;;;;;;1.40;0.80;;;26.80;69.50;;;;;;4991516;28;20563;-83
2023/07/07 08:09:40;;;;;;;1.43;0.80;;;26.90;70.30;;;;;;4991311;28;20523;-83
2023/07/07 08:12:09;;;;;;;1.50;0.90;;;27.00;69.10;;;;;;4990511;28;20491;-82
2023/07/07 08:14:36;;;;;;;1.47;0.90;;;27.10;69.90;;;;;;4991503;28;20651;-82
2023/07/07 08:17:08;;;;;;;1.43;0.80;;;27.30;69.30;;;;;;4998431;28;20468;-81
2023/07/07 08:19:37;;;;;;;1.50;0.80;;;27.40;69.60;;;;;;4991720;28;20595;-83
2023/07/07 08:22:16;;;;;;;1.50;0.80;;;27.50;68.50;;;;;;4997852;28;20816;-85
2023/07/07 08:24:53;;;;;;;1.50;0.80;;;27.60;66.70;;;;;;4993231;28;20525;-83
2023/07/07 08:27:22;;;;;;;1.43;0.83;;;27.60;68.40;;;;;;4991120;28;20468;-83
2023/07/07 08:29:49;;;;;;;1.47;0.80;;;27.60;67.50;;;;;;4993816;28;20479;-83
2023/07/07 08:32:21;;;;;;;1.47;0.80;;;27.80;67.60;;;;;;5003742;28;20468;-80
2023/07/07 08:34:48;;;;;;;1.47;0.87;;;28.00;66.30;;;;;;5008682;28;20459;-84
2023/07/07 08:37:17;;;;;;;1.50;0.80;;;28.00;66.20;;;;;;5000643;28;20468;-81
2023/07/07 08:39:47;;;;;;;1.50;0.80;;;28.00;65.80;;;;;;4997629;28;20547;-83
2023/07/07 08:42:22;;;;;;;1.47;0.80;;;28.00;66.00;;;;;;4998263;28;20471;-83
2023/07/07 08:44:49;;;;;;;1.47;0.80;;;28.10;65.90;;;;;;4991883;28;21087;-83
2023/07/07 08:47:34;;;;;;;1.47;0.80;;;28.00;66.50;;;;;;4992039;28;20464;-82
2023/07/07 08:50:06;;;;;;;1.50;1.00;;;28.20;65.90;;;;;;4989534;28;20539;-83
2023/07/07 08:52:45;;;;;;;1.50;0.80;;;28.30;65.70;;;;;;4995342;28;20572;-82
2023/07/07 08:55:31;;;;;;;1.43;0.80;;;28.60;65.00;;;;;;4990601;28;20468;-80
2023/07/07 08:58:03;;;;;;;2.37;1.20;;;28.70;64.90;;;;;;4998331;28;20489;-82
2023/07/07 09:00:48;;;;;;;1.50;0.80;;;28.70;63.50;;;;;;4992876;28;20499;-82
2023/07/07 09:03:25;;;;;;;1.47;0.80;;;28.60;64.20;;;;;;5006635;28;20530;-81
2023/07/07 09:06:06;;;;;;;1.50;0.80;;;28.70;63.80;;;;;;4992691;28;20506;-83
2023/07/07 09:08:41;;;;;;;1.50;0.80;;;28.90;63.50;;;;;;4993557;28;20496;-83
2023/07/07 09:11:16;;;;;;;1.43;0.80;;;29.00;64.90;;;;;;4995165;28;20531;-83
2023/07/07 09:13:47;;;;;;;1.47;0.80;;;29.30;63.20;;;;;;4990763;28;20874;-83
2023/07/07 09:16:21;;;;;;;1.50;0.80;;;29.50;63.70;;;;;;5000016;28;20588;-81
2023/07/07 09:18:56;;;;;;;1.47;0.80;;;29.60;61.70;;;;;;5002365;28;20478;-84
2023/07/07 09:25:09;;;;;;;1.47;0.80;;;30.00;61.20;;;;;;4968428;28;20528;-84
2023/07/07 09:27:41;;;;;;;1.40;0.80;;;30.00;60.70;;;;;;5004032;28;20471;-82
2023/07/07 09:30:19;;;;;;;1.47;0.80;;;30.00;59.90;;;;;;4989791;28;20483;-82
2023/07/07 09:32:46;;;;;;;1.47;0.80;;;30.20;60.60;;;;;;4995876;28;20496;-79
2023/07/07 09:35:19;;;;;;;1.50;0.90;;;30.20;60.30;;;;;;5000751;28;20627;-83
2023/07/07 09:37:56;;;;;;;1.43;0.80;;;30.40;60.00;;;;;;4997050;28;20471;-82
2023/07/07 09:40:31;;;;;;;1.47;0.90;;;30.40;58.40;;;;;;5005119;28;20562;-81
2023/07/07 09:43:05;;;;;;;1.43;0.80;;;30.50;59.20;;;;;;5005360;28;20985;-83
2023/07/07 09:46:04;;;;;;;1.47;0.80;;;30.50;58.00;;;;;;5003015;28;20467;-82
2023/07/07 09:48:39;;;;;;;1.43;0.80;;;30.40;58.70;;;;;;4996704;28;20518;-83
2023/07/07 09:58:23;;;;;;;1.40;0.80;;;30.80;57.80;;;;;;4884791;29;20491;-82
2023/07/07 10:01:01;;;;;;;1.50;0.80;;;30.80;55.80;;;;;;4979451;28;20460;-82
2023/07/07 10:03:35;;;;;;;1.47;0.80;;;30.90;58.30;;;;;;4980589;28;20300;-83
2023/07/07 10:06:12;;;;;;;1.43;0.80;;;31.20;58.10;;;;;;4976360;28;20689;-84
2023/07/07 10:08:43;;;;;;;1.43;0.80;;;31.30;56.00;;;;;;4982563;28;20224;-84
2023/07/07 10:11:18;;;;;;;1.43;0.80;;;31.30;55.00;;;;;;5000185;28;20627;-80
2023/07/07 10:13:47;;;;;;;1.47;0.80;;;31.10;55.10;;;;;;4994524;28;20236;-84
2023/07/07 10:16:29;;;;;;;1.47;0.80;;;31.10;55.80;;;;;;5006773;28;20459;-84
2023/07/07 10:19:04;;;;;;;1.43;0.80;;;31.00;56.40;;;;;;5002452;28;20271;-83
2023/07/07 10:22:08;;;;;;;1.70;1.33;;;31.20;56.10;;;;;;4999337;28;20967;-82
2023/07/07 10:24:37;;;;;;;1.47;0.80;;;31.30;56.10;;;;;;5002708;28;20459;-82
2023/07/07 10:27:05;;;;;;;1.43;0.80;;;31.40;56.00;;;;;;4998278;28;20589;-82
2023/07/07 10:29:39;;;;;;;1.47;0.80;;;31.60;54.60;;;;;;5002537;28;20236;-84
2023/07/07 10:32:12;;;;;;;1.40;0.80;;;31.60;53.30;;;;;;4995761;28;20284;-84
2023/07/07 10:34:44;;;;;;;1.40;0.80;;;31.50;53.60;;;;;;4995648;28;20224;-84
2023/07/07 10:37:27;;;;;;;1.40;0.80;;;31.40;53.40;;;;;;4997008;28;20272;-83
2023/07/07 10:40:01;;;;;;;1.43;0.80;;;31.20;53.80;;;;;;4998807;28;20213;-82
2023/07/07 10:42:30;;;;;;;1.40;0.80;;;31.60;54.50;;;;;;4996187;28;20228;-82
2023/07/07 10:45:00;;;;;;;1.43;0.80;;;31.90;52.80;;;;;;4996115;28;20197;-81
2023/07/07 10:47:30;;;;;;;1.40;0.80;;;32.00;52.60;;;;;;4993325;28;20260;-83
2023/07/07 10:50:04;;;;;;;1.43;0.80;;;32.10;52.60;;;;;;5001272;28;20739;-82
2023/07/07 10:53:06;;;;;;;1.50;0.90;;;31.90;53.00;;;;;;5002562;28;20228;-82
2023/07/07 10:56:04;;;;;;;1.43;0.80;;;32.10;54.20;;;;;;5001288;28;20235;-82
2023/07/07 10:58:46;;;;;;;1.80;1.30;;;32.20;53.50;;;;;;4999436;28;20247;-83
2023/07/07 11:01:27;;;;;;;1.40;0.80;;;32.30;50.80;;;;;;4998193;28;20200;-80
2023/07/07 11:04:29;;;;;;;1.40;0.80;;;32.20;51.80;;;;;;4993994;28;20208;-83
2023/07/07 11:07:06;;;;;;;1.43;0.80;;;32.30;52.60;;;;;;4959648;28;20201;-80
2023/07/07 11:10:31;;;;;;;1.40;0.80;;;32.40;51.80;;;;;;4996195;28;20230;-82
2023/07/07 11:16:40;;;;;;;1.40;0.80;;;32.40;52.80;;;;;;4996084;28;20327;-81
2023/07/07 11:19:27;;;;;;;1.40;0.80;;;32.80;52.70;;;;;;4997386;28;20343;-80
2023/07/07 11:22:05;;;;;;;1.40;0.80;;;33.00;51.60;;;;;;4987970;28;21024;-82
2023/07/07 11:24:37;;;;;;;1.40;0.80;;;32.90;50.10;;;;;;4996887;28;20734;-82
2023/07/07 11:33:30;;;;;;;1.40;0.80;;;32.70;51.00;;;;;;4996291;28;20294;-84
2023/07/07 11:36:24;;;;;;;1.40;0.80;;;32.70;50.90;;;;;;4999530;28;20205;-84
2023/07/07 11:39:09;;;;;;;1.60;1.00;;;32.90;51.80;;;;;;4996594;28;20225;-85
2023/07/07 11:41:56;;;;;;;1.45;0.80;;;33.20;51.60;;;;;;5000565;28;20204;-84
2023/07/07 11:47:35;;;;;;;1.40;0.80;;;33.80;51.10;;;;;;4998832;28;20209;-81
2023/07/07 11:50:35;;;;;;;1.40;0.80;;;33.70;49.60;;;;;;4997335;28;20217;-82
2023/07/07 11:53:26;;;;;;;1.40;0.82;;;33.60;49.20;;;;;;5000349;28;20221;-83
2023/07/07 11:56:10;;;;;;;1.40;0.80;;;33.40;50.00;;;;;;4997143;28;20208;-83
2023/07/07 11:58:47;;;;;;;1.40;0.80;;;33.60;49.20;;;;;;4998539;28;20246;-85
2023/07/07 12:01:35;;;;;;;1.40;0.80;;;33.70;50.40;;;;;;4999154;28;20319;-83
2023/07/07 12:04:19;;;;;;;1.40;0.80;;;33.80;50.20;;;;;;4999633;28;20396;-82
2023/07/07 12:06:54;;;;;;;1.40;0.80;;;33.80;49.90;;;;;;5005682;28;20470;-85
2023/07/07 12:09:26;;;;;;;1.50;0.90;;;33.90;48.90;;;;;;5008251;28;20917;-83
2023/07/07 12:12:01;;;;;;;1.40;0.80;;;34.00;50.10;;;;;;5005558;28;20585;-83
2023/07/07 12:14:42;;;;;;;1.40;0.80;;;34.10;51.40;;;;;;5003781;28;20282;-84
2023/07/07 12:17:17;;;;;;;1.48;0.80;;;34.30;51.10;;;;;;5008522;28;20215;-83
2023/07/07 12:19:47;;;;;;;1.40;0.90;;;34.30;48.60;;;;;;5010644;28;20228;-82
2023/07/07 12:22:35;;;;;;;1.40;0.80;;;34.20;51.10;;;;;;5007396;28;20221;-84
2023/07/07 12:25:23;;;;;;;1.40;0.80;;;34.50;51.00;;;;;;5005618;28;20212;-84
2023/07/07 12:27:52;;;;;;;1.40;0.88;;;34.10;49.40;;;;;;5004469;28;21143;-82
2023/07/07 12:30:22;;;;;;;1.45;0.93;;;34.10;50.40;;;;;;5006921;28;20213;-83
2023/07/07 12:32:53;;;;;;;1.40;0.80;;;34.20;50.40;;;;;;5005173;28;20755;-81
2023/07/07 12:35:27;;;;;;;1.40;0.80;;;34.30;49.90;;;;;;5003500;28;20259;-84
2023/07/07 12:38:07;;;;;;;1.40;0.80;;;34.50;52.20;;;;;;5009392;28;20307;-85
2023/07/07 12:40:36;;;;;;;1.40;0.90;;;34.90;48.40;;;;;;5009013;28;20775;-82
2023/07/07 12:43:15;;;;;;;1.40;0.80;;;34.70;49.00;;;;;;5003928;28;20235;-81
2023/07/07 12:45:59;;;;;;;1.67;1.25;;;34.50;48.40;;;;;;5007619;28;20200;-84
2023/07/07 12:48:35;;;;;;;1.40;0.80;;;34.20;48.70;;;;;;5008319;28;20304;-82
2023/07/07 12:51:05;;;;;;;1.40;0.80;;;34.30;50.90;;;;;;5018523;28;20279;-83
2023/07/07 12:53:42;;;;;;;1.40;0.80;;;34.50;47.50;;;;;;5012004;28;20243;-81
2023/07/07 12:56:20;;;;;;;1.40;0.80;;;34.40;47.10;;;;;;5005086;28;20258;-84
2023/07/07 12:58:49;;;;;;;1.40;0.80;;;34.70;48.90;;;;;;5002047;28;21001;-80
2023/07/07 13:01:38;;;;;;;1.40;0.80;;;34.80;47.00;;;;;;5003160;28;20251;-83
2023/07/07 13:04:16;;;;;;;1.40;0.80;;;34.80;46.70;;;;;;5002970;28;20693;-82
2023/07/07 13:07:06;;;;;;;1.40;0.90;;;34.70;45.90;;;;;;5004865;28;20201;-84
2023/07/07 13:09:51;;;;;;;1.40;0.80;;;34.70;47.40;;;;;;5009313;28;20224;-83
2023/07/07 13:12:50;;;;;;;1.40;0.80;;;34.80;46.90;;;;;;5005586;28;20208;-85
2023/07/07 13:15:25;;;;;;;1.40;0.80;;;34.70;45.90;;;;;;4937464;28;20237;-84
2023/07/07 13:17:54;;;;;;;1.40;0.80;;;34.70;47.10;;;;;;5006033;28;20685;-82
2023/07/07 13:20:27;;;;;;;1.40;0.80;;;34.40;47.30;;;;;;5008518;28;20213;-83
2023/07/07 13:23:18;;;;;;;1.98;0.90;;;34.40;47.20;;;;;;5007211;28;20312;-83
2023/07/07 13:25:51;;;;;;;1.40;0.80;;;34.10;48.00;;;;;;5007959;28;20696;-82
2023/07/07 13:28:22;;;;;;;1.40;0.80;;;34.10;48.50;;;;;;5008212;28;20224;-81
2023/07/07 13:31:08;;;;;;;1.40;0.80;;;34.20;48.40;;;;;;5010410;28;20204;-82
2023/07/07 13:33:35;;;;;;;1.40;0.80;;;34.20;47.50;;;;;;5004017;28;20738;-81
2023/07/07 13:36:21;;;;;;;1.40;0.90;;;34.30;51.30;;;;;;5004916;28;20220;-82
2023/07/07 13:39:06;;;;;;;1.35;0.80;;;34.70;48.00;;;;;;4993101;28;20259;-81
2023/07/07 13:41:43;;;;;;;1.40;0.80;;;34.70;48.80;;;;;;5003705;28;20295;-79
2023/07/07 13:44:59;;;;;;;1.40;0.80;;;34.60;46.70;;;;;;5002202;28;20314;-83
2023/07/07 13:50:51;;;;;;;1.40;0.80;;;34.30;47.60;;;;;;5006485;28;20223;-82
2023/07/07 13:56:05;;;;;;;1.40;0.90;;;34.50;47.30;;;;;;4994468;28;20209;-84